createdAt,value
2018-03-11T00:00:39.078Z,17.57
2018-03-11T00:03:07.080Z,16.93
2018-03-11T00:05:35.748Z,16.90
2018-03-11T00:08:03.979Z,17.13
2018-03-11T00:10:32.212Z,18.67
2018-03-11T00:13:00.451Z,19.60
2018-03-11T00:15:28.679Z,19.10
2018-03-11T00:17:56.930Z,18.13
2018-03-11T00:20:25.931Z,16.53
2018-03-11T00:22:54.232Z,17.17
2018-03-11T00:25:22.757Z,16.67
2018-03-11T00:27:51.778Z,17.83
2018-03-11T00:30:20.003Z,17.77
2018-03-11T00:32:48.249Z,18.43
2018-03-11T00:35:16.476Z,19.77
2018-03-11T00:37:45.497Z,19.57
2018-03-11T00:40:13.727Z,20.10
2018-03-11T00:42:41.972Z,20.40
2018-03-11T00:45:10.204Z,19.23
2018-03-11T00:47:38.452Z,21.00
2018-03-11T00:50:06.681Z,22.67
2018-03-11T00:52:34.941Z,21.93
2018-03-11T00:55:03.177Z,21.93
2018-03-11T00:57:31.404Z,21.77
2018-03-11T00:59:59.652Z,23.43
2018-03-11T01:02:27.880Z,21.63
2018-03-11T01:04:56.120Z,23.87
2018-03-11T01:07:24.361Z,22.70
2018-03-11T01:09:53.378Z,24.07
2018-03-11T01:12:21.601Z,24.17
2018-03-11T01:14:49.849Z,23.20
2018-03-11T01:17:18.085Z,21.20
2018-03-11T01:19:46.329Z,22.90
2018-03-11T01:22:14.565Z,21.53
2018-03-11T01:24:42.809Z,21.90
2018-03-11T01:27:11.032Z,22.10
2018-03-11T01:29:39.284Z,22.43
2018-03-11T01:32:07.521Z,21.53
2018-03-11T01:34:35.766Z,22.93
2018-03-11T01:37:03.984Z,23.10
2018-03-11T01:39:32.228Z,22.57
2018-03-11T01:42:01.236Z,21.27
2018-03-11T01:44:29.484Z,21.93
2018-03-11T01:46:57.714Z,22.20
2018-03-11T01:49:25.958Z,22.17
2018-03-11T01:51:54.948Z,21.03
2018-03-11T01:54:23.192Z,21.40
2018-03-11T01:56:52.241Z,21.63
2018-03-11T01:59:20.497Z,20.77
2018-03-11T02:01:48.730Z,22.20
2018-03-11T02:04:16.961Z,20.87
2018-03-11T02:06:45.227Z,21.37
2018-03-11T02:09:14.183Z,21.67
2018-03-11T02:11:43.191Z,22.23
2018-03-11T02:14:11.417Z,22.17
2018-03-11T02:16:39.665Z,22.80
2018-03-11T02:19:07.887Z,23.07
2018-03-11T02:21:36.904Z,20.90
2018-03-11T02:24:05.132Z,21.70
2018-03-11T02:26:33.389Z,22.20
2018-03-11T02:29:01.625Z,23.03
2018-03-11T02:31:29.873Z,23.37
2018-03-11T02:33:58.109Z,21.90
2018-03-11T02:36:26.353Z,22.80
2018-03-11T02:38:54.595Z,22.50
2018-03-11T02:41:22.836Z,22.03
2018-03-11T02:43:51.061Z,21.53
2018-03-11T02:46:20.074Z,22.17
2018-03-11T02:48:48.353Z,23.33
2018-03-11T02:51:17.339Z,22.53
2018-03-11T02:53:45.571Z,22.63
2018-03-11T02:56:13.821Z,22.73
2018-03-11T02:58:42.046Z,24.53
2018-03-11T03:01:10.300Z,23.80
2018-03-11T03:03:39.297Z,23.73
2018-03-11T03:06:08.310Z,24.40
2018-03-11T03:08:36.868Z,23.70
2018-03-11T03:11:05.876Z,23.77
2018-03-11T03:13:34.105Z,23.10
2018-03-11T03:16:02.360Z,23.27
2018-03-11T03:18:30.592Z,22.80
2018-03-11T03:20:59.588Z,23.20
2018-03-11T03:23:27.841Z,22.60
2018-03-11T03:25:56.834Z,22.60
2018-03-11T03:28:25.844Z,22.77
2018-03-11T03:30:54.140Z,24.53
2018-03-11T03:33:22.321Z,24.53
2018-03-11T03:35:50.551Z,24.80
2018-03-11T03:38:19.567Z,26.13
2018-03-11T03:40:47.795Z,26.90
2018-03-11T03:43:16.040Z,26.90
2018-03-11T03:45:44.270Z,26.10
2018-03-11T03:48:13.284Z,24.00
2018-03-11T03:50:41.523Z,26.23
2018-03-11T03:53:10.539Z,24.47
2018-03-11T03:55:38.770Z,24.77
2018-03-11T03:58:07.017Z,24.13
2018-03-11T04:00:35.253Z,24.93
2018-03-11T04:03:04.264Z,21.27
2018-03-11T04:05:32.505Z,23.40
2018-03-11T04:08:00.745Z,24.93
2018-03-11T04:10:29.261Z,26.67
2018-03-11T04:12:58.273Z,25.77
2018-03-11T04:15:26.508Z,27.57
2018-03-11T04:17:54.754Z,28.97
2018-03-11T04:20:22.985Z,28.27
2018-03-11T04:22:52.269Z,27.70
2018-03-11T04:25:20.491Z,26.33
2018-03-11T04:27:48.753Z,29.67
2018-03-11T04:30:16.989Z,29.47
2018-03-11T04:32:45.984Z,30.17
2018-03-11T04:35:15.000Z,27.97
2018-03-11T04:37:43.236Z,29.17
2018-03-11T04:40:11.479Z,27.90
2018-03-11T04:42:39.712Z,24.90
2018-03-11T04:45:07.968Z,24.70
2018-03-11T04:47:36.969Z,25.80
2018-03-11T04:50:05.977Z,24.77
2018-03-11T04:52:34.759Z,26.83
2018-03-11T04:55:03.008Z,24.27
2018-03-11T04:57:32.012Z,23.70
2018-03-11T05:00:01.029Z,21.03
2018-03-11T05:02:29.264Z,22.03
2018-03-11T05:04:57.511Z,21.77
2018-03-11T05:07:25.741Z,22.30
2018-03-11T05:09:53.989Z,21.57
2018-03-11T05:12:22.985Z,21.87
2018-03-11T05:14:52.049Z,19.80
2018-03-11T05:17:20.235Z,18.00
2018-03-11T05:19:48.481Z,21.97
2018-03-11T05:22:16.716Z,22.43
2018-03-11T05:24:44.966Z,22.50
2018-03-11T05:27:14.704Z,23.83
2018-03-11T05:29:42.952Z,24.60
2018-03-11T05:32:12.001Z,24.20
2018-03-11T05:34:40.253Z,25.63
2018-03-11T05:37:08.488Z,24.47
2018-03-11T05:39:36.741Z,26.60
2018-03-11T05:42:05.256Z,24.23
2018-03-11T05:44:33.476Z,25.17
2018-03-11T05:47:01.733Z,25.87
2018-03-11T05:49:29.976Z,27.83
2018-03-11T05:51:58.992Z,28.60
2018-03-11T05:54:27.228Z,22.93
2018-03-11T05:56:55.463Z,21.13
2018-03-11T05:59:23.715Z,21.03
2018-03-11T06:01:51.948Z,25.23
2018-03-11T06:04:20.428Z,27.03
2018-03-11T06:06:48.672Z,23.63
2018-03-11T06:09:16.904Z,24.40
2018-03-11T06:11:45.155Z,19.80
2018-03-11T06:14:14.144Z,22.77
2018-03-11T06:16:42.392Z,23.77
2018-03-11T06:19:10.700Z,24.77
2018-03-11T06:21:39.707Z,25.93
2018-03-11T06:24:07.948Z,25.90
2018-03-11T06:26:36.183Z,25.03
2018-03-11T06:29:04.416Z,22.97
2018-03-11T06:31:33.428Z,24.80
2018-03-11T06:34:01.665Z,22.63
2018-03-11T06:36:29.912Z,23.17
2018-03-11T06:38:58.180Z,23.67
2018-03-11T06:41:26.404Z,23.70
2018-03-11T06:43:55.420Z,24.47
2018-03-11T06:46:23.663Z,21.37
2018-03-11T06:48:52.676Z,20.53
2018-03-11T06:51:20.917Z,19.93
2018-03-11T06:53:49.164Z,19.17
2018-03-11T06:56:18.165Z,20.27
2018-03-11T06:58:46.413Z,21.30
2018-03-11T07:01:14.652Z,22.70
2018-03-11T07:03:43.683Z,23.30
2018-03-11T07:06:11.897Z,23.30
2018-03-11T07:08:40.148Z,21.10
2018-03-11T07:11:08.440Z,19.83
2018-03-11T07:13:36.694Z,18.97
2018-03-11T07:16:04.920Z,16.20
2018-03-11T07:18:33.172Z,18.00
2018-03-11T07:21:02.188Z,15.97
2018-03-11T07:23:30.838Z,16.23
2018-03-11T07:25:59.044Z,16.17
2018-03-11T07:28:27.292Z,15.63
2018-03-11T07:30:56.300Z,16.63
2018-03-11T07:33:25.323Z,15.97
2018-03-11T07:35:53.572Z,16.73
2018-03-11T07:38:22.585Z,17.20
2018-03-11T07:40:50.821Z,17.63
2018-03-11T07:43:19.832Z,17.73
2018-03-11T07:45:48.079Z,17.53
2018-03-11T07:48:17.096Z,18.03
2018-03-11T07:50:45.341Z,18.87
2018-03-11T07:53:13.615Z,17.10
2018-03-11T07:55:41.849Z,17.20
2018-03-11T07:58:10.094Z,16.50
2018-03-11T08:00:38.341Z,17.87
2018-03-11T08:03:07.349Z,16.03
2018-03-11T08:05:36.388Z,18.23
2018-03-11T08:08:04.616Z,17.30
2018-03-11T08:10:32.873Z,17.07
2018-03-11T08:13:01.104Z,17.23
2018-03-11T08:15:29.365Z,17.97
2018-03-11T08:17:57.599Z,17.33
2018-03-11T08:20:26.613Z,17.07
2018-03-11T08:22:54.856Z,17.73
2018-03-11T08:25:23.111Z,17.60
2018-03-11T08:27:51.356Z,15.90
2018-03-11T08:30:19.613Z,14.60
2018-03-11T08:32:47.849Z,14.90
2018-03-11T08:35:16.101Z,14.23
2018-03-11T08:37:44.333Z,13.83
2018-03-11T08:40:12.592Z,12.27
2018-03-11T08:42:41.592Z,12.00
2018-03-11T08:45:09.852Z,12.33
2018-03-11T08:47:38.860Z,11.47
2018-03-11T08:50:07.116Z,11.13
2018-03-11T08:52:36.129Z,11.03
2018-03-11T08:55:07.347Z,10.43
2018-03-11T08:57:36.428Z,11.53
2018-03-11T09:00:04.681Z,11.67
2018-03-11T09:02:32.916Z,11.30
2018-03-11T09:05:01.400Z,11.67
2018-03-11T09:07:29.623Z,12.20
2018-03-11T09:09:57.862Z,12.57
2018-03-11T09:12:26.104Z,12.57
2018-03-11T09:14:54.672Z,12.67
2018-03-11T09:17:23.692Z,12.13
2018-03-11T09:19:51.933Z,12.57
2018-03-11T09:22:20.945Z,12.43
2018-03-11T09:24:49.190Z,12.67
2018-03-11T09:27:17.464Z,12.43
2018-03-11T09:29:45.688Z,12.07
2018-03-11T09:32:13.941Z,13.47
2018-03-11T09:34:42.193Z,13.40
2018-03-11T09:37:11.214Z,12.20
2018-03-11T09:39:39.460Z,12.43
2018-03-11T09:42:08.480Z,12.80
2018-03-11T09:44:36.718Z,12.47
2018-03-11T09:47:04.972Z,12.83
2018-03-11T09:49:33.208Z,13.27
2018-03-11T09:52:01.472Z,13.37
2018-03-11T09:54:30.032Z,13.30
2018-03-11T09:56:59.093Z,13.53
2018-03-11T09:59:27.521Z,13.47
2018-03-11T10:01:56.528Z,12.77
2018-03-11T10:04:24.775Z,12.37
2018-03-11T10:06:53.800Z,12.83
2018-03-11T10:09:22.036Z,12.83
2018-03-11T10:11:51.088Z,12.73
2018-03-11T10:14:19.361Z,12.13
2018-03-11T10:16:47.572Z,12.80
2018-03-11T10:19:16.582Z,12.43
2018-03-11T10:21:45.604Z,12.17
2018-03-11T10:24:13.849Z,11.80
2018-03-11T10:26:42.095Z,12.80
2018-03-11T10:29:11.124Z,12.20
2018-03-11T10:31:39.366Z,12.50
2018-03-11T10:34:07.612Z,12.27
2018-03-11T10:36:35.852Z,11.47
2018-03-11T10:39:04.229Z,10.93
2018-03-11T10:41:32.504Z,11.10
2018-03-11T10:44:00.793Z,11.70
2018-03-11T10:46:29.069Z,10.70
2018-03-11T10:48:57.352Z,10.23
2018-03-11T10:51:25.630Z,10.10
2018-03-11T10:53:53.956Z,10.53
2018-03-11T10:56:22.473Z,10.67
2018-03-11T10:58:50.772Z,10.88
2018-03-11T11:01:19.609Z,10.50
2018-03-11T11:03:52.753Z,11.07
2018-03-11T11:06:21.020Z,11.03
2018-03-11T11:08:49.312Z,11.30
2018-03-11T11:11:17.584Z,11.27
2018-03-11T11:13:45.877Z,11.47
2018-03-11T11:16:14.923Z,11.23
2018-03-11T11:18:43.207Z,11.03
2018-03-11T11:21:11.477Z,11.67
2018-03-11T11:23:39.776Z,10.80
2018-03-11T11:26:08.041Z,10.83
2018-03-11T11:28:36.313Z,11.13
2018-03-11T11:31:04.599Z,11.30
2018-03-11T11:33:32.880Z,11.10
2018-03-11T11:36:01.168Z,11.33
2018-03-11T11:38:30.213Z,10.83
2018-03-11T11:40:58.496Z,10.73
2018-03-11T11:43:26.770Z,10.10
2018-03-11T11:45:55.052Z,10.77
2018-03-11T11:48:24.093Z,10.63
2018-03-11T11:50:53.140Z,10.63
2018-03-11T11:53:21.460Z,11.20
2018-03-11T11:55:50.537Z,11.40
2018-03-11T11:58:19.595Z,11.83
2018-03-11T12:00:47.881Z,11.80
2018-03-11T12:03:16.154Z,12.17
2018-03-11T12:05:44.443Z,11.83
2018-03-11T12:08:12.714Z,11.13
2018-03-11T12:10:41.008Z,11.60
2018-03-11T12:13:10.052Z,11.40
2018-03-11T12:15:38.337Z,10.53
2018-03-11T12:18:06.606Z,10.17
2018-03-11T12:20:34.885Z,11.07
2018-03-11T12:23:03.166Z,11.20
2018-03-11T12:25:31.465Z,10.53
2018-03-11T12:27:59.737Z,10.60
2018-03-11T12:30:28.025Z,11.27
2018-03-11T12:32:57.060Z,10.07
2018-03-11T12:35:25.365Z,10.73
2018-03-11T12:37:53.633Z,10.87
2018-03-11T12:40:21.911Z,10.67
2018-03-11T12:42:50.194Z,9.87
2018-03-11T12:45:18.478Z,10.40
2018-03-11T12:47:46.743Z,10.87
2018-03-11T12:50:15.017Z,10.37
2018-03-11T12:52:43.304Z,11.10
2018-03-11T12:55:11.575Z,10.47
2018-03-11T12:57:39.998Z,10.67
2018-03-11T13:00:09.017Z,10.90
2018-03-11T13:02:37.296Z,10.73
2018-03-11T13:05:05.576Z,10.40
2018-03-11T13:07:33.860Z,10.80
2018-03-11T13:10:02.134Z,10.53
2018-03-11T13:12:30.417Z,10.07
2018-03-11T13:14:58.691Z,10.03
2018-03-11T13:17:26.977Z,10.07
2018-03-11T13:20:05.699Z,10.00
2018-03-11T13:22:34.747Z,9.77
2018-03-11T13:25:03.018Z,9.93
2018-03-11T13:27:31.301Z,10.13
2018-03-11T13:29:59.569Z,9.77
2018-03-11T13:32:39.891Z,9.80
2018-03-11T13:35:08.165Z,9.97
2018-03-11T13:37:36.445Z,9.97
2018-03-11T13:40:16.702Z,9.33
2018-03-11T13:42:44.990Z,10.20
2018-03-11T13:45:25.094Z,9.23
2018-03-11T13:47:53.402Z,9.10
2018-03-11T13:50:21.645Z,9.83
2018-03-11T13:53:01.927Z,9.73
2018-03-11T13:55:30.187Z,8.77
2018-03-11T13:58:17.874Z,9.13
2018-03-11T14:00:46.185Z,9.23
2018-03-11T14:03:15.229Z,9.00
2018-03-11T14:05:43.489Z,8.60
2018-03-11T14:08:11.776Z,8.70
2018-03-11T14:10:40.037Z,8.40
2018-03-11T14:13:08.315Z,7.27
2018-03-11T14:15:36.578Z,7.43
2018-03-11T14:18:04.869Z,7.23
2018-03-11T14:20:33.130Z,7.23
2018-03-11T14:23:01.394Z,7.17
2018-03-11T14:25:29.671Z,7.50
2018-03-11T14:27:57.936Z,7.20
2018-03-11T14:30:26.976Z,6.60
2018-03-11T14:32:55.244Z,7.43
2018-03-11T14:35:23.523Z,6.90
2018-03-11T14:37:51.776Z,6.20
2018-03-11T14:40:20.057Z,6.47
2018-03-11T14:42:48.313Z,5.60
2018-03-11T14:45:16.586Z,5.83
2018-03-11T14:47:44.864Z,5.70
2018-03-11T14:50:13.134Z,4.43
2018-03-11T14:52:41.397Z,4.40
2018-03-11T14:55:10.441Z,3.57
2018-03-11T14:57:38.709Z,3.10
2018-03-11T15:00:06.976Z,2.90
2018-03-11T15:02:35.672Z,2.93
2018-03-11T15:05:04.668Z,2.40
2018-03-11T15:07:32.934Z,2.87
2018-03-11T15:10:01.216Z,2.37
2018-03-11T15:12:30.249Z,2.70
2018-03-11T15:14:59.283Z,2.30
2018-03-11T15:17:27.560Z,2.03
2018-03-11T15:19:55.820Z,2.10
2018-03-11T15:22:24.101Z,1.97
2018-03-11T15:24:52.364Z,2.27
2018-03-11T15:27:20.644Z,2.10
2018-03-11T15:29:48.916Z,2.43
2018-03-11T15:32:19.856Z,2.40
2018-03-11T15:34:49.236Z,2.23
2018-03-11T15:37:17.546Z,2.40
2018-03-11T15:39:45.817Z,2.50
2018-03-11T15:42:14.060Z,3.10
2018-03-11T15:44:42.289Z,2.63
2018-03-11T15:47:10.525Z,3.00
2018-03-11T15:49:38.910Z,3.40
2018-03-11T15:52:07.155Z,3.00
2018-03-11T15:54:36.268Z,3.53
2018-03-11T15:57:04.683Z,3.20
2018-03-11T15:59:32.995Z,3.20
2018-03-11T16:02:02.049Z,3.00
2018-03-11T16:04:30.415Z,3.00
2018-03-11T16:06:58.765Z,2.83
2018-03-11T16:09:27.064Z,2.90
2018-03-11T16:11:55.321Z,3.03
2018-03-11T16:14:23.590Z,3.13
2018-03-11T16:16:52.599Z,3.13
2018-03-11T16:19:20.844Z,3.50
2018-03-11T16:21:49.068Z,3.20
2018-03-11T16:24:28.280Z,3.30
2018-03-11T16:26:45.536Z,3.33
2018-03-11T16:29:13.788Z,3.20
2018-03-11T16:31:42.011Z,3.47
2018-03-11T16:34:10.255Z,3.93
2018-03-11T16:36:38.480Z,5.03
2018-03-11T16:39:06.742Z,5.10
2018-03-11T16:41:35.725Z,4.30
2018-03-11T16:44:04.018Z,3.97
2018-03-11T16:46:32.268Z,4.43
2018-03-11T16:49:00.663Z,4.17
2018-03-11T16:51:28.903Z,4.00
2018-03-11T16:53:57.121Z,3.93
2018-03-11T16:56:25.344Z,4.40
2018-03-11T16:58:53.593Z,5.07
2018-03-11T17:01:21.817Z,4.77
2018-03-11T17:03:50.066Z,4.77
2018-03-11T17:06:18.288Z,4.80
2018-03-11T17:08:46.529Z,5.40
2018-03-11T17:11:15.534Z,4.43
2018-03-11T17:13:43.780Z,4.90
2018-03-11T17:16:12.012Z,4.80
2018-03-11T17:18:40.240Z,5.23
2018-03-11T17:21:09.240Z,5.33
2018-03-11T17:23:37.480Z,5.20
2018-03-11T17:26:05.713Z,5.33
2018-03-11T17:28:34.080Z,5.40
2018-03-11T17:31:02.324Z,5.30
2018-03-11T17:33:31.332Z,4.57
2018-03-11T17:36:00.330Z,3.70
2018-03-11T17:38:29.086Z,3.63
2018-03-11T17:40:58.159Z,3.60
2018-03-11T17:43:26.401Z,3.80
2018-03-11T17:45:54.641Z,3.43
2018-03-11T17:48:23.632Z,3.70
2018-03-11T17:50:52.638Z,3.53
2018-03-11T17:53:20.875Z,4.07
2018-03-11T17:55:49.116Z,4.43
2018-03-11T17:58:17.345Z,3.70
2018-03-11T18:00:46.356Z,3.53
2018-03-11T18:03:14.593Z,4.03
2018-03-11T18:05:42.835Z,3.60
2018-03-11T18:08:11.060Z,5.00
2018-03-11T18:10:40.074Z,5.10
2018-03-11T18:13:08.331Z,9.13
2018-03-11T18:15:37.328Z,10.33
2018-03-11T18:18:05.568Z,9.77
2018-03-11T18:20:33.813Z,5.73
2018-03-11T18:23:02.044Z,5.23
2018-03-11T18:25:31.052Z,4.93
2018-03-11T18:27:59.300Z,4.70
2018-03-11T18:30:28.316Z,4.37
2018-03-11T18:32:56.557Z,4.47
2018-03-11T18:35:24.787Z,6.60
2018-03-11T18:37:53.046Z,17.13
2018-03-11T18:40:21.279Z,14.93
2018-03-11T18:42:50.306Z,15.90
2018-03-11T18:45:18.548Z,12.83
2018-03-11T18:47:47.575Z,11.20
2018-03-11T18:50:15.834Z,7.77
2018-03-11T18:52:44.053Z,7.10
2018-03-11T18:55:12.277Z,6.23
2018-03-11T18:57:40.524Z,5.63
2018-03-11T19:00:08.930Z,5.43
2018-03-11T19:02:37.942Z,5.50
2018-03-11T19:05:06.169Z,5.70
2018-03-11T19:07:34.420Z,7.90
2018-03-11T19:10:02.645Z,6.43
2018-03-11T19:12:30.883Z,6.03
2018-03-11T19:14:59.108Z,5.37
2018-03-11T19:17:27.368Z,4.57
2018-03-11T19:19:55.616Z,4.83
2018-03-11T19:22:24.639Z,4.43
2018-03-11T19:24:52.862Z,4.67
2018-03-11T19:27:21.104Z,4.77
2018-03-11T19:29:49.332Z,5.37
2018-03-11T19:32:18.340Z,5.43
2018-03-11T19:34:46.565Z,5.30
2018-03-11T19:37:14.816Z,6.17
2018-03-11T19:39:43.110Z,7.77
2018-03-11T19:42:12.036Z,7.83
2018-03-11T19:44:41.040Z,8.23
2018-03-11T19:47:10.040Z,7.97
2018-03-11T19:49:38.336Z,8.13
2018-03-11T19:52:06.570Z,7.83
2018-03-11T19:54:35.573Z,6.87
2018-03-11T19:57:03.804Z,6.37
2018-03-11T19:59:32.048Z,6.13
2018-03-11T20:02:00.277Z,5.60
2018-03-11T20:04:29.292Z,5.90
2018-03-11T20:06:57.528Z,5.97
2018-03-11T20:09:26.354Z,6.40
2018-03-11T20:11:55.440Z,6.37
2018-03-11T20:14:23.692Z,6.30
2018-03-11T20:16:51.938Z,6.43
2018-03-11T20:19:20.188Z,6.20
2018-03-11T20:21:48.413Z,6.17
2018-03-11T20:24:16.661Z,6.47
2018-03-11T20:26:44.883Z,6.20
2018-03-11T20:29:13.888Z,6.50
2018-03-11T20:31:42.125Z,6.30
2018-03-11T20:34:10.369Z,6.37
2018-03-11T20:36:38.627Z,6.50
2018-03-11T20:39:06.852Z,6.60
2018-03-11T20:41:35.072Z,6.57
2018-03-11T20:44:03.305Z,6.17
2018-03-11T20:46:32.312Z,6.50
2018-03-11T20:49:00.582Z,6.40
2018-03-11T20:51:28.768Z,7.07
2018-03-11T20:53:56.996Z,6.53
2018-03-11T20:56:25.234Z,6.40
2018-03-11T20:58:53.461Z,6.37
2018-03-11T21:01:22.475Z,5.93
2018-03-11T21:03:50.700Z,5.40
2018-03-11T21:06:18.968Z,7.47
2018-03-11T21:08:47.189Z,7.00
2018-03-11T21:11:16.199Z,6.90
2018-03-11T21:13:44.423Z,6.63
2018-03-11T21:16:12.665Z,6.10
2018-03-11T21:18:40.892Z,6.53
2018-03-11T21:21:09.888Z,6.10
2018-03-11T21:23:38.884Z,6.67
2018-03-11T21:26:07.898Z,6.13
2018-03-11T21:28:36.122Z,6.43
2018-03-11T21:31:04.356Z,6.70
2018-03-11T21:33:32.577Z,6.03
2018-03-11T21:36:00.818Z,7.93
2018-03-11T21:38:29.041Z,7.10
2018-03-11T21:40:58.049Z,7.20
2018-03-11T21:43:26.282Z,6.80
2018-03-11T21:45:54.508Z,6.40
2018-03-11T21:48:22.824Z,6.90
2018-03-11T21:50:51.084Z,7.20
2018-03-11T21:53:21.549Z,6.23
2018-03-11T21:55:49.772Z,7.63
2018-03-11T21:58:18.004Z,7.33
2018-03-11T22:00:47.209Z,6.43
2018-03-11T22:03:15.448Z,6.10
2018-03-11T22:05:44.013Z,6.10
2018-03-11T22:08:12.233Z,6.80
2018-03-11T22:10:41.220Z,6.27
2018-03-11T22:13:10.229Z,6.70
2018-03-11T22:15:38.455Z,6.80
2018-03-11T22:18:06.688Z,6.70
2018-03-11T22:20:34.912Z,7.87
2018-03-11T22:23:03.152Z,8.53
2018-03-11T22:25:31.774Z,7.93
2018-03-11T22:27:59.996Z,7.23
2018-03-11T22:30:28.229Z,6.90
2018-03-11T22:32:57.228Z,6.90
2018-03-11T22:35:26.220Z,7.30
2018-03-11T22:37:55.235Z,8.03
2018-03-11T22:40:23.450Z,7.50
2018-03-11T22:42:51.700Z,6.20
2018-03-11T22:45:19.920Z,6.70
2018-03-11T22:47:48.924Z,7.93
2018-03-11T22:50:17.915Z,7.07
2018-03-11T22:52:46.920Z,6.67
2018-03-11T22:55:15.146Z,6.17
2018-03-11T22:57:43.380Z,6.87
2018-03-11T23:00:11.612Z,7.30
2018-03-11T23:02:39.844Z,6.80
2018-03-11T23:05:08.095Z,6.50
2018-03-11T23:07:36.320Z,6.80
2018-03-11T23:10:04.560Z,6.17
2018-03-11T23:12:32.780Z,6.13
2018-03-11T23:15:01.792Z,5.87
2018-03-11T23:17:30.020Z,6.83
2018-03-11T23:19:58.256Z,7.30
2018-03-11T23:22:26.481Z,7.10
2018-03-11T23:24:54.725Z,6.70
2018-03-11T23:27:22.950Z,6.97
2018-03-11T23:29:51.948Z,6.53
2018-03-11T23:32:20.932Z,7.07
2018-03-11T23:34:50.423Z,6.97
2018-03-11T23:37:18.645Z,6.57
2018-03-11T23:39:46.872Z,6.97
2018-03-11T23:42:15.104Z,8.83
2018-03-11T23:44:43.342Z,7.87
2018-03-11T23:47:11.565Z,8.10
2018-03-11T23:49:39.805Z,8.23
2018-03-11T23:52:08.029Z,7.13
2018-03-11T23:54:36.260Z,8.00
2018-03-11T23:57:04.488Z,7.93
2018-03-11T23:59:33.492Z,7.57
